Time;durP1;ratioP1;P1;durP2;ratioP2;P2;SDS_P1;SDS_P2;PMS_P1;PMS_P2;Temp;Humidity;BMP_temperature;BMP_pressure;BME280_temperature;BME280_humidity;BME280_pressure;Samples;Min_cycle;Max_cycle;Signal;HPM_P1;HPM_P2
2021/06/06 00:01:48;;;;;;;6.70;6.10;;;22.00;73.60;;;;;;5052289;28;20945;-63
2021/06/06 00:04:19;;;;;;;6.60;6.07;;;22.00;73.80;;;;;;5052979;28;20467;-62
2021/06/06 00:06:45;;;;;;;7.30;6.80;;;22.00;73.90;;;;;;5053547;28;20481;-62
2021/06/06 00:09:15;;;;;;;7.20;6.60;;;21.90;74.20;;;;;;5052969;28;20478;-62
2021/06/06 00:11:44;;;;;;;6.97;6.37;;;21.90;74.20;;;;;;5052087;28;20578;-63
2021/06/06 00:14:13;;;;;;;7.00;6.40;;;21.90;74.30;;;;;;5052815;28;20497;-62
2021/06/06 00:16:43;;;;;;;6.90;6.27;;;21.90;74.50;;;;;;5052122;28;20479;-63
2021/06/06 00:19:12;;;;;;;6.43;5.93;;;21.80;74.60;;;;;;5052838;28;20841;-63
2021/06/06 00:21:39;;;;;;;7.30;6.80;;;21.80;74.70;;;;;;5039170;28;20558;-63
2021/06/06 00:24:07;;;;;;;7.13;6.63;;;21.80;75.00;;;;;;5052486;28;20470;-63
2021/06/06 00:26:33;;;;;;;7.67;7.07;;;21.80;75.20;;;;;;5038804;28;20837;-63
2021/06/06 00:29:00;;;;;;;7.30;6.70;;;21.80;75.30;;;;;;5052477;28;20468;-63
2021/06/06 00:31:26;;;;;;;7.60;7.00;;;21.70;75.50;;;;;;5051941;28;20552;-63
2021/06/06 00:33:53;;;;;;;6.80;6.37;;;21.70;75.60;;;;;;5049169;28;20470;-63
2021/06/06 00:36:22;;;;;;;7.60;7.00;;;21.70;75.80;;;;;;5052433;28;20550;-62
2021/06/06 00:38:49;;;;;;;7.23;6.63;;;21.70;76.00;;;;;;5049588;28;20459;-63
2021/06/06 00:41:18;;;;;;;7.40;6.77;;;21.60;76.90;;;;;;5052273;28;20482;-62
2021/06/06 00:43:46;;;;;;;6.80;6.20;;;21.60;76.30;;;;;;5051778;28;20942;-62
2021/06/06 00:46:13;;;;;;;7.43;6.80;;;21.60;76.50;;;;;;5052362;28;20467;-63
2021/06/06 00:48:39;;;;;;;7.00;6.50;;;21.60;76.70;;;;;;5051638;28;20475;-62
2021/06/06 00:51:14;;;;;;;8.00;7.30;;;21.60;76.90;;;;;;5052231;28;20459;-62
2021/06/06 00:53:45;;;;;;;8.20;7.33;;;21.60;77.10;;;;;;5051746;28;20475;-62
2021/06/06 00:56:15;;;;;;;7.10;6.50;;;21.50;77.20;;;;;;5051958;28;20524;-62
2021/06/06 00:58:43;;;;;;;7.20;6.70;;;21.50;77.50;;;;;;5051770;28;20476;-62
2021/06/06 01:01:11;;;;;;;6.80;6.30;;;21.50;77.80;;;;;;5052032;28;20517;-63
2021/06/06 01:03:38;;;;;;;7.37;6.70;;;21.40;77.80;;;;;;5051763;28;20491;-63
2021/06/06 01:06:17;;;;;;;6.70;6.20;;;21.40;78.20;;;;;;5052302;28;20473;-63
2021/06/06 01:08:45;;;;;;;7.07;6.57;;;21.40;78.30;;;;;;5051596;28;20991;-62
2021/06/06 01:11:16;;;;;;;8.97;8.10;;;21.30;78.40;;;;;;5052285;28;20987;-62
2021/06/06 01:13:46;;;;;;;9.57;8.67;;;21.30;78.60;;;;;;5053665;28;20539;-63
2021/06/06 01:16:18;;;;;;;8.13;7.50;;;21.30;78.80;;;;;;5056006;28;20816;-62
2021/06/06 01:18:48;;;;;;;10.30;9.40;;;21.20;78.90;;;;;;5055668;28;20489;-63
2021/06/06 01:21:22;;;;;;;9.53;8.73;;;21.20;79.90;;;;;;5055782;28;20462;-62
2021/06/06 01:24:09;;;;;;;9.63;8.90;;;21.20;79.20;;;;;;5052605;28;20459;-62
2021/06/06 01:26:40;;;;;;;9.03;8.23;;;21.20;79.40;;;;;;5054688;28;20477;-62
2021/06/06 01:29:13;;;;;;;8.90;8.10;;;21.10;79.60;;;;;;5055657;28;20471;-63
2021/06/06 01:31:43;;;;;;;8.73;8.03;;;21.10;80.00;;;;;;5055201;28;20479;-62
2021/06/06 01:34:12;;;;;;;10.27;9.47;;;21.10;80.00;;;;;;5053948;28;20458;-62
2021/06/06 01:36:43;;;;;;;12.27;11.27;;;21.00;80.10;;;;;;5055333;28;20524;-62
2021/06/06 01:39:17;;;;;;;16.70;15.37;;;21.00;80.20;;;;;;5054326;28;20470;-63
2021/06/06 01:41:47;;;;;;;14.60;13.50;;;21.00;80.40;;;;;;5055179;28;20476;-62
2021/06/06 01:44:18;;;;;;;14.10;12.90;;;20.90;80.40;;;;;;5058026;28;20463;-62
2021/06/06 01:46:47;;;;;;;15.17;13.93;;;20.90;80.70;;;;;;5054909;28;20960;-63
2021/06/06 01:49:16;;;;;;;14.77;13.50;;;20.90;81.00;;;;;;5054823;28;20467;-62
2021/06/06 01:51:46;;;;;;;12.40;11.33;;;20.90;81.00;;;;;;5054767;28;20498;-63
2021/06/06 01:54:17;;;;;;;11.43;10.40;;;20.90;81.10;;;;;;5055322;28;20475;-64
2021/06/06 01:56:47;;;;;;;9.23;8.53;;;20.80;81.30;;;;;;5051805;28;20504;-64
2021/06/06 01:59:19;;;;;;;9.30;8.60;;;20.80;81.30;;;;;;5055535;28;20463;-61
2021/06/06 02:01:45;;;;;;;12.77;11.47;;;20.80;81.50;;;;;;5054760;28;20469;-62
2021/06/06 02:04:12;;;;;;;10.53;9.50;;;20.80;82.40;;;;;;5051514;28;20481;-62
2021/06/06 02:06:43;;;;;;;10.00;9.20;;;20.80;81.70;;;;;;5053566;28;20478;-63
2021/06/06 02:09:15;;;;;;;9.50;8.80;;;20.70;81.80;;;;;;5053160;28;20479;-62
2021/06/06 02:11:46;;;;;;;10.13;9.23;;;20.70;81.80;;;;;;5054700;28;20781;-63
2021/06/06 02:14:16;;;;;;;10.70;9.90;;;20.70;82.20;;;;;;5049447;28;20467;-63
2021/06/06 02:16:45;;;;;;;13.30;12.30;;;20.70;82.30;;;;;;5034259;28;20547;-63
2021/06/06 02:19:12;;;;;;;9.80;9.10;;;20.70;82.50;;;;;;5052327;28;21045;-63
2021/06/06 02:21:39;;;;;;;9.93;9.23;;;20.70;82.60;;;;;;5054604;28;20482;-63
2021/06/06 02:24:06;;;;;;;10.50;9.80;;;20.60;82.70;;;;;;5053638;28;20474;-63
2021/06/06 02:26:41;;;;;;;9.03;8.33;;;20.60;82.80;;;;;;5055085;28;20497;-63
2021/06/06 02:29:13;;;;;;;11.40;10.50;;;20.60;83.00;;;;;;5054225;28;21541;-63
2021/06/06 02:31:44;;;;;;;10.00;9.20;;;20.60;83.10;;;;;;5054443;28;20471;-63
2021/06/06 02:34:16;;;;;;;11.10;9.97;;;20.60;83.20;;;;;;5053534;28;20466;-63
2021/06/06 02:36:51;;;;;;;9.57;8.80;;;20.50;83.30;;;;;;5054589;28;20459;-63
2021/06/06 02:39:21;;;;;;;8.50;7.90;;;20.50;83.60;;;;;;5054495;28;21388;-62
2021/06/06 02:41:51;;;;;;;9.63;8.83;;;20.50;83.60;;;;;;5054565;28;20525;-62
2021/06/06 02:44:22;;;;;;;8.70;8.00;;;20.50;83.70;;;;;;5054254;28;20473;-62
2021/06/06 02:46:51;;;;;;;9.73;8.83;;;20.50;83.80;;;;;;5054343;28;20483;-63
2021/06/06 02:49:23;;;;;;;10.90;8.90;;;20.50;84.00;;;;;;5053867;28;20462;-62
2021/06/06 02:51:54;;;;;;;9.37;8.57;;;20.50;84.10;;;;;;5054211;28;20470;-62
2021/06/06 02:54:26;;;;;;;10.53;9.57;;;20.50;84.30;;;;;;5054216;28;20551;-63
2021/06/06 02:56:56;;;;;;;11.60;10.60;;;20.50;84.40;;;;;;5051634;28;20481;-63
2021/06/06 02:59:27;;;;;;;10.50;9.70;;;20.50;84.70;;;;;;5054017;28;20541;-62
2021/06/06 03:01:58;;;;;;;10.83;10.03;;;20.50;84.80;;;;;;5054140;28;20972;-62
2021/06/06 03:04:27;;;;;;;9.37;8.67;;;20.40;84.60;;;;;;5053704;28;20672;-62
2021/06/06 03:06:57;;;;;;;10.13;9.23;;;20.40;84.30;;;;;;5054278;28;20858;-62
2021/06/06 03:09:25;;;;;;;10.37;9.37;;;20.40;84.30;;;;;;5053526;28;20474;-63
2021/06/06 03:11:55;;;;;;;9.80;9.10;;;20.40;84.10;;;;;;5054056;28;20480;-62
2021/06/06 03:14:26;;;;;;;9.90;9.10;;;20.40;84.20;;;;;;5053282;28;20473;-63
2021/06/06 03:16:56;;;;;;;12.00;11.00;;;20.40;84.20;;;;;;5053812;28;20470;-63
2021/06/06 03:19:25;;;;;;;11.70;10.70;;;20.40;84.30;;;;;;5053365;28;20470;-63
2021/06/06 03:21:52;;;;;;;13.77;12.70;;;20.40;84.30;;;;;;5052370;28;20829;-62
2021/06/06 03:24:22;;;;;;;12.03;11.23;;;20.50;84.50;;;;;;5053395;28;20552;-63
2021/06/06 03:26:50;;;;;;;13.27;11.20;;;20.50;84.70;;;;;;5053708;28;20546;-64
2021/06/06 03:29:26;;;;;;;10.97;10.17;;;20.50;84.80;;;;;;5053352;28;20501;-63
2021/06/06 03:31:58;;;;;;;10.73;9.83;;;20.50;84.60;;;;;;5053546;28;20490;-64
2021/06/06 03:34:25;;;;;;;9.80;9.10;;;20.50;84.70;;;;;;5052459;28;20990;-62
2021/06/06 03:36:51;;;;;;;10.40;9.60;;;20.50;84.60;;;;;;5053455;28;20478;-63
2021/06/06 03:39:26;;;;;;;9.70;8.80;;;20.50;84.80;;;;;;5053254;28;20470;-63
2021/06/06 03:41:53;;;;;;;9.17;8.57;;;20.50;85.10;;;;;;5053409;28;21033;-62
2021/06/06 03:44:21;;;;;;;9.83;9.13;;;20.50;84.90;;;;;;5052803;28;20555;-62
2021/06/06 03:46:48;;;;;;;9.80;9.00;;;20.50;85.00;;;;;;5053123;28;20484;-63
2021/06/06 03:49:15;;;;;;;10.03;9.20;;;20.50;84.90;;;;;;5040683;28;20532;-63
2021/06/06 03:51:42;;;;;;;10.10;9.40;;;20.60;84.90;;;;;;5052761;28;20470;-63
2021/06/06 03:54:11;;;;;;;9.93;9.00;;;20.60;84.80;;;;;;5052768;28;20474;-62
2021/06/06 03:56:38;;;;;;;8.80;8.10;;;20.60;85.20;;;;;;5049243;28;20474;-63
2021/06/06 03:59:05;;;;;;;9.53;8.70;;;20.60;85.50;;;;;;5052717;28;20831;-62
2021/06/06 04:01:32;;;;;;;7.97;7.40;;;20.70;85.60;;;;;;5039630;28;20983;-63
2021/06/06 04:03:59;;;;;;;9.80;8.90;;;20.70;85.90;;;;;;5052969;28;20465;-63
2021/06/06 04:06:29;;;;;;;8.50;7.80;;;20.70;85.90;;;;;;5052671;28;20462;-62
2021/06/06 04:08:56;;;;;;;9.90;9.10;;;20.70;86.10;;;;;;5053050;28;20474;-63
2021/06/06 04:11:22;;;;;;;10.97;10.13;;;20.70;85.90;;;;;;5052453;28;20470;-63
2021/06/06 04:13:50;;;;;;;10.47;9.57;;;20.80;85.90;;;;;;5052774;28;20470;-63
2021/06/06 04:16:17;;;;;;;8.97;8.23;;;20.80;85.90;;;;;;5052291;28;20481;-63
2021/06/06 04:18:45;;;;;;;9.23;8.53;;;20.80;86.10;;;;;;5052728;28;20562;-63
2021/06/06 04:21:14;;;;;;;9.67;8.97;;;20.80;86.50;;;;;;5052396;28;20798;-62
2021/06/06 04:23:40;;;;;;;9.20;8.50;;;20.90;86.30;;;;;;5052635;28;20478;-63
2021/06/06 04:26:07;;;;;;;10.20;9.30;;;20.90;85.70;;;;;;5052269;28;20558;-63
2021/06/06 04:28:35;;;;;;;9.73;8.93;;;21.00;85.30;;;;;;5052551;28;20485;-63
2021/06/06 04:31:02;;;;;;;9.60;8.80;;;21.00;84.90;;;;;;5052418;28;20975;-63
2021/06/06 04:33:28;;;;;;;9.43;8.70;;;21.00;84.70;;;;;;5052022;28;20471;-62
2021/06/06 04:35:56;;;;;;;10.00;9.10;;;21.10;84.90;;;;;;5052502;28;20474;-63
2021/06/06 04:38:25;;;;;;;11.77;10.70;;;21.10;84.60;;;;;;5052034;28;20471;-62
2021/06/06 04:40:53;;;;;;;10.17;9.27;;;21.10;84.10;;;;;;5052456;28;20550;-63
2021/06/06 04:43:20;;;;;;;12.60;9.10;;;21.20;84.20;;;;;;5052140;28;20994;-63
2021/06/06 04:45:46;;;;;;;10.37;9.57;;;21.20;84.10;;;;;;5052399;28;20984;-63
2021/06/06 04:48:16;;;;;;;9.13;8.43;;;21.30;84.00;;;;;;5051643;28;20477;-62
2021/06/06 04:50:44;;;;;;;10.00;9.27;;;21.30;83.80;;;;;;5052445;28;20787;-62
2021/06/06 04:53:13;;;;;;;9.83;9.07;;;21.40;83.80;;;;;;5052018;28;20809;-62
2021/06/06 04:55:39;;;;;;;10.30;9.50;;;21.40;83.80;;;;;;5052125;28;20463;-63
2021/06/06 04:58:07;;;;;;;9.70;8.73;;;21.40;83.60;;;;;;5051975;28;20980;-63
2021/06/06 05:00:35;;;;;;;10.20;9.30;;;21.50;83.60;;;;;;5036158;28;21610;-63
2021/06/06 05:03:02;;;;;;;9.60;8.70;;;21.50;83.40;;;;;;5031123;28;20483;-63
2021/06/06 05:05:29;;;;;;;10.30;9.30;;;21.50;83.40;;;;;;5030918;28;21061;-63
2021/06/06 05:07:59;;;;;;;10.67;9.67;;;21.60;83.20;;;;;;5032368;28;20483;-62
2021/06/06 05:10:29;;;;;;;11.17;10.20;;;21.60;82.80;;;;;;5031788;28;20550;-63
2021/06/06 05:12:56;;;;;;;10.17;9.17;;;21.60;82.80;;;;;;5032006;28;20502;-62
2021/06/06 05:15:23;;;;;;;11.53;10.63;;;21.60;82.70;;;;;;5041671;28;20520;-63
2021/06/06 05:17:49;;;;;;;9.63;8.93;;;21.60;82.80;;;;;;5050566;28;20475;-63
2021/06/06 05:20:18;;;;;;;10.40;9.50;;;21.60;82.80;;;;;;5050278;28;20805;-62
2021/06/06 05:22:44;;;;;;;10.10;9.40;;;21.70;83.00;;;;;;5050622;28;20463;-62
2021/06/06 05:25:12;;;;;;;11.23;10.33;;;21.70;83.50;;;;;;5049985;28;20477;-62
2021/06/06 05:27:41;;;;;;;11.63;10.53;;;21.70;83.00;;;;;;5051485;28;20801;-63
2021/06/06 05:30:11;;;;;;;11.37;10.37;;;21.80;83.20;;;;;;5052186;28;20945;-64
2021/06/06 05:32:37;;;;;;;10.60;9.80;;;21.90;83.40;;;;;;5051746;28;20454;-63
2021/06/06 05:35:05;;;;;;;10.93;10.07;;;21.90;83.30;;;;;;5052204;28;20574;-63
2021/06/06 05:37:31;;;;;;;11.23;10.43;;;22.00;83.50;;;;;;5051587;28;20825;-63
2021/06/06 05:39:58;;;;;;;12.30;11.20;;;22.10;83.80;;;;;;5052115;28;20459;-63
2021/06/06 05:42:24;;;;;;;11.40;10.50;;;22.20;83.80;;;;;;5051597;28;20467;-64
2021/06/06 05:44:52;;;;;;;10.53;9.70;;;22.30;84.10;;;;;;5052085;28;20469;-64
2021/06/06 05:47:18;;;;;;;12.00;11.10;;;22.30;84.10;;;;;;5051301;28;20471;-64
2021/06/06 05:49:44;;;;;;;12.07;11.17;;;22.40;84.40;;;;;;5051971;28;20463;-62
2021/06/06 05:52:11;;;;;;;11.67;10.80;;;22.50;84.50;;;;;;5051964;28;20459;-63
2021/06/06 05:54:37;;;;;;;11.33;10.53;;;22.50;84.50;;;;;;5051678;28;20492;-63
2021/06/06 05:57:05;;;;;;;11.20;10.40;;;22.70;85.10;;;;;;5051616;28;20824;-63
2021/06/06 05:59:31;;;;;;;12.77;11.77;;;22.70;84.70;;;;;;5055013;28;21016;-63
2021/06/06 06:01:59;;;;;;;12.77;11.67;;;22.80;84.50;;;;;;5055560;28;20493;-63
2021/06/06 06:04:25;;;;;;;13.43;12.33;;;22.90;84.30;;;;;;5055010;28;21098;-62
2021/06/06 06:06:51;;;;;;;11.93;10.93;;;23.10;84.40;;;;;;5055372;28;20451;-62
2021/06/06 06:09:18;;;;;;;11.10;10.20;;;23.20;84.40;;;;;;5054953;28;20463;-63
2021/06/06 06:11:44;;;;;;;12.80;11.90;;;23.40;84.50;;;;;;5055437;28;20474;-63
2021/06/06 06:14:11;;;;;;;13.30;12.27;;;23.50;84.20;;;;;;5055178;28;20459;-64
2021/06/06 06:16:39;;;;;;;13.00;12.10;;;23.60;83.70;;;;;;5054875;28;20514;-64
2021/06/06 06:19:09;;;;;;;13.43;12.33;;;23.80;83.90;;;;;;5055239;28;20467;-64
2021/06/06 06:21:36;;;;;;;13.93;12.80;;;23.80;83.60;;;;;;5054746;28;20485;-63
2021/06/06 06:24:03;;;;;;;14.30;13.20;;;24.00;83.50;;;;;;5055256;28;20541;-64
2021/06/06 06:26:29;;;;;;;14.27;13.07;;;24.20;83.30;;;;;;5054761;28;21050;-64
2021/06/06 06:28:56;;;;;;;13.37;12.37;;;24.30;82.80;;;;;;5055015;28;20477;-64
2021/06/06 06:31:22;;;;;;;14.27;13.27;;;24.50;82.80;;;;;;5054468;28;20473;-63
2021/06/06 06:33:49;;;;;;;12.57;11.63;;;24.70;82.20;;;;;;5054935;28;20473;-64
2021/06/06 06:36:19;;;;;;;12.60;11.70;;;24.90;82.20;;;;;;5055089;28;20548;-64
2021/06/06 06:38:46;;;;;;;12.50;11.40;;;25.20;81.60;;;;;;5054680;28;20464;-64
2021/06/06 06:41:13;;;;;;;12.70;11.70;;;25.30;80.80;;;;;;5054658;28;20466;-62
2021/06/06 06:43:39;;;;;;;12.00;11.20;;;25.50;79.70;;;;;;5054418;28;21136;-64
2021/06/06 06:46:06;;;;;;;12.87;11.70;;;25.60;78.80;;;;;;5054638;28;20467;-64
2021/06/06 06:48:32;;;;;;;11.70;10.80;;;25.70;78.30;;;;;;5054182;28;20479;-63
2021/06/06 06:51:00;;;;;;;13.53;12.53;;;25.90;78.50;;;;;;5054531;28;20477;-64
2021/06/06 06:53:28;;;;;;;12.90;11.97;;;26.00;78.50;;;;;;5054124;28;20475;-64
2021/06/06 06:55:54;;;;;;;12.43;11.53;;;26.20;76.70;;;;;;5054434;28;20532;-64
2021/06/06 06:58:21;;;;;;;12.47;11.30;;;26.30;76.30;;;;;;5054324;28;20520;-64
2021/06/06 07:00:49;;;;;;;12.27;11.33;;;26.40;76.00;;;;;;5054150;28;20899;-64
2021/06/06 07:03:20;;;;;;;12.33;11.30;;;26.50;76.60;;;;;;5054317;28;20868;-64
2021/06/06 07:05:47;;;;;;;11.50;10.63;;;26.60;76.80;;;;;;5053925;28;20455;-64
2021/06/06 07:08:16;;;;;;;12.67;11.67;;;26.80;76.60;;;;;;5054003;28;20482;-62
2021/06/06 07:10:45;;;;;;;11.87;11.03;;;26.90;76.40;;;;;;5052566;28;20479;-62
2021/06/06 07:13:12;;;;;;;11.00;10.17;;;27.00;75.50;;;;;;5054339;28;20558;-62
2021/06/06 07:15:39;;;;;;;11.13;10.33;;;27.20;74.60;;;;;;5053479;28;20899;-63
2021/06/06 07:18:08;;;;;;;12.27;11.17;;;27.30;74.50;;;;;;5053865;28;20475;-62
2021/06/06 07:20:38;;;;;;;10.97;10.17;;;27.30;74.60;;;;;;5053787;28;20775;-62
2021/06/06 07:23:06;;;;;;;11.77;11.03;;;27.30;73.60;;;;;;5053996;28;20488;-62
2021/06/06 07:25:34;;;;;;;10.83;10.03;;;27.30;73.70;;;;;;5053485;28;20527;-62
2021/06/06 07:28:03;;;;;;;10.93;10.03;;;27.40;74.30;;;;;;5053833;28;20473;-62
2021/06/06 07:30:32;;;;;;;12.23;11.13;;;27.40;74.20;;;;;;5053273;28;20481;-63
2021/06/06 07:33:00;;;;;;;12.30;11.33;;;27.50;73.60;;;;;;5053776;28;20459;-63
2021/06/06 07:35:30;;;;;;;12.80;11.90;;;27.50;72.90;;;;;;5053127;28;20972;-63
2021/06/06 07:37:57;;;;;;;12.73;11.83;;;27.60;72.10;;;;;;5053687;28;20496;-63
2021/06/06 07:40:26;;;;;;;11.77;10.83;;;27.70;71.50;;;;;;5053594;28;20494;-63
2021/06/06 07:42:52;;;;;;;10.30;9.50;;;27.80;70.80;;;;;;5053545;28;21088;-63
2021/06/06 07:45:21;;;;;;;11.07;10.23;;;27.80;70.20;;;;;;5053541;28;20824;-63
2021/06/06 07:47:47;;;;;;;11.13;10.33;;;27.90;70.20;;;;;;5052873;28;20474;-63
2021/06/06 07:50:21;;;;;;;11.00;10.10;;;28.00;69.20;;;;;;5053484;28;20486;-63
2021/06/06 07:52:47;;;;;;;12.70;11.80;;;28.10;69.70;;;;;;5053086;28;20516;-63
2021/06/06 07:55:16;;;;;;;12.83;11.63;;;28.30;69.60;;;;;;5053219;28;20467;-63
2021/06/06 07:57:43;;;;;;;12.90;12.00;;;28.40;68.60;;;;;;5052663;28;20567;-63
2021/06/06 08:00:12;;;;;;;13.17;12.20;;;28.60;68.70;;;;;;5053323;28;20975;-63
2021/06/06 08:02:41;;;;;;;14.50;13.40;;;28.70;68.10;;;;;;5052637;28;20471;-63
2021/06/06 08:05:09;;;;;;;14.07;12.90;;;28.70;68.00;;;;;;5053417;28;20456;-63
2021/06/06 08:07:35;;;;;;;11.67;10.77;;;28.80;68.40;;;;;;5052698;28;21103;-63
2021/06/06 08:10:02;;;;;;;11.57;10.67;;;28.80;67.20;;;;;;5052651;28;20475;-63
2021/06/06 08:12:28;;;;;;;10.20;9.40;;;28.90;65.60;;;;;;5053132;28;20463;-63
2021/06/06 08:14:55;;;;;;;11.47;10.70;;;28.90;65.10;;;;;;5052822;28;21053;-63
2021/06/06 08:17:22;;;;;;;11.20;10.40;;;29.00;65.50;;;;;;5052739;28;20478;-63
2021/06/06 08:19:50;;;;;;;11.40;10.50;;;29.10;64.40;;;;;;5052365;28;20550;-63
2021/06/06 08:22:17;;;;;;;11.10;10.30;;;29.10;64.00;;;;;;5052861;28;20494;-63
2021/06/06 08:24:46;;;;;;;10.57;9.77;;;29.20;63.20;;;;;;5052431;28;20984;-63
2021/06/06 08:27:12;;;;;;;9.90;9.23;;;29.30;63.00;;;;;;5052841;28;20471;-63
2021/06/06 08:29:40;;;;;;;11.10;8.77;;;29.30;60.80;;;;;;5052292;28;20473;-63
2021/06/06 08:32:11;;;;;;;9.80;8.90;;;29.30;59.10;;;;;;5052560;28;20451;-63
2021/06/06 08:34:38;;;;;;;8.43;7.83;;;29.30;59.00;;;;;;5052335;28;20516;-63
2021/06/06 08:37:07;;;;;;;9.00;8.30;;;29.40;59.10;;;;;;5052490;28;20462;-63
2021/06/06 08:39:35;;;;;;;10.20;9.40;;;29.50;59.00;;;;;;5052219;28;20459;-63
2021/06/06 08:42:06;;;;;;;8.40;7.37;;;29.50;57.60;;;;;;5052518;28;20455;-63
2021/06/06 08:44:34;;;;;;;6.70;6.20;;;29.50;55.20;;;;;;5052294;28;20470;-62
2021/06/06 08:47:05;;;;;;;7.43;6.83;;;29.50;53.90;;;;;;5052253;28;20477;-63
2021/06/06 08:49:36;;;;;;;6.70;6.30;;;29.60;53.40;;;;;;5052518;28;20467;-63
2021/06/06 08:52:22;;;;;;;8.30;7.60;;;29.70;53.70;;;;;;5052308;28;21241;-63
2021/06/06 08:54:54;;;;;;;7.60;7.00;;;29.70;54.50;;;;;;5051906;28;20550;-63
2021/06/06 08:57:30;;;;;;;8.33;7.63;;;29.70;54.80;;;;;;5052062;28;20477;-63
2021/06/06 09:00:00;;;;;;;8.90;8.30;;;29.70;55.10;;;;;;5051943;28;20462;-63
2021/06/06 09:02:33;;;;;;;8.70;7.90;;;29.70;55.10;;;;;;5052197;28;20463;-62
2021/06/06 09:05:04;;;;;;;7.10;6.60;;;29.70;54.90;;;;;;5051979;28;20467;-63
2021/06/06 09:07:38;;;;;;;5.50;4.97;;;29.70;51.50;;;;;;5052185;28;20505;-63
2021/06/06 09:10:09;;;;;;;6.47;5.97;;;29.60;50.80;;;;;;5052089;28;20468;-64
2021/06/06 09:12:37;;;;;;;6.70;6.30;;;29.70;50.20;;;;;;5052466;28;20472;-63
2021/06/06 09:15:08;;;;;;;7.73;7.10;;;29.70;50.90;;;;;;5051717;28;20466;-64
2021/06/06 09:17:40;;;;;;;5.73;5.37;;;29.80;52.00;;;;;;5051833;28;20996;-63
2021/06/06 09:20:26;;;;;;;5.93;5.53;;;29.80;50.80;;;;;;5052170;28;20452;-64
2021/06/06 09:23:05;;;;;;;6.47;5.90;;;29.70;48.90;;;;;;5051646;28;20464;-63
2021/06/06 09:25:36;;;;;;;5.30;4.97;;;29.80;48.70;;;;;;5052252;28;20483;-63
2021/06/06 09:28:04;;;;;;;5.07;4.63;;;29.80;48.10;;;;;;5051680;28;20550;-63
2021/06/06 09:30:31;;;;;;;5.70;5.30;;;29.80;47.40;;;;;;5051895;28;20463;-63
2021/06/06 09:33:10;;;;;;;5.20;4.90;;;29.80;48.00;;;;;;5053248;28;20486;-62
2021/06/06 09:35:39;;;;;;;5.40;5.00;;;29.80;48.20;;;;;;5055974;28;20531;-63
2021/06/06 09:38:18;;;;;;;5.43;5.13;;;29.80;47.20;;;;;;5055363;28;20467;-63
2021/06/06 09:40:46;;;;;;;7.47;4.47;;;29.80;47.70;;;;;;5055620;28;20463;-63
2021/06/06 09:43:24;;;;;;;4.10;3.80;;;29.70;44.90;;;;;;5055822;28;20467;-64
2021/06/06 09:45:50;;;;;;;4.30;4.00;;;29.70;44.10;;;;;;5055499;28;20553;-64
2021/06/06 09:48:26;;;;;;;4.67;4.37;;;29.60;44.30;;;;;;5055576;28;20473;-63
2021/06/06 09:50:55;;;;;;;5.23;4.73;;;29.70;45.70;;;;;;5055327;28;20508;-63
2021/06/06 09:53:30;;;;;;;5.30;4.90;;;29.70;45.10;;;;;;5055740;28;20944;-63
2021/06/06 09:56:06;;;;;;;4.50;4.30;;;29.70;44.20;;;;;;5055194;28;20528;-63
2021/06/06 09:58:37;;;;;;;4.53;4.20;;;29.60;44.20;;;;;;5055357;28;20560;-63
2021/06/06 10:01:19;;;;;;;4.70;4.40;;;29.50;44.40;;;;;;5055137;28;20478;-63
2021/06/06 10:03:53;;;;;;;5.43;4.87;;;29.50;43.90;;;;;;5055127;28;20463;-63
2021/06/06 10:06:27;;;;;;;5.00;4.60;;;29.40;43.50;;;;;;5055539;28;20545;-63
2021/06/06 10:09:02;;;;;;;5.63;5.23;;;29.30;43.80;;;;;;5054967;28;20470;-63
2021/06/06 10:11:33;;;;;;;4.70;4.40;;;29.40;44.10;;;;;;5055155;28;20501;-62
2021/06/06 10:14:01;;;;;;;4.87;4.53;;;29.40;44.00;;;;;;5054771;28;20467;-63
2021/06/06 10:16:34;;;;;;;5.13;4.83;;;29.50;44.40;;;;;;5055306;28;20866;-63
2021/06/06 10:19:05;;;;;;;4.73;4.43;;;29.50;45.20;;;;;;5054785;28;20493;-63
2021/06/06 10:21:35;;;;;;;5.20;4.87;;;29.50;45.30;;;;;;5055049;28;21020;-63
2021/06/06 10:24:13;;;;;;;5.23;4.83;;;29.50;45.60;;;;;;5052850;28;20477;-63
2021/06/06 10:26:49;;;;;;;4.50;4.20;;;29.30;44.70;;;;;;5045928;28;20473;-63
2021/06/06 10:29:30;;;;;;;5.03;4.67;;;29.30;44.90;;;;;;5054259;28;20466;-63
2021/06/06 10:32:07;;;;;;;5.00;4.60;;;29.20;45.00;;;;;;5052983;28;20467;-63
2021/06/06 10:34:40;;;;;;;7.87;5.47;;;29.00;45.30;;;;;;5054396;28;20470;-63
2021/06/06 10:37:08;;;;;;;5.83;5.43;;;28.90;45.30;;;;;;5044815;28;20804;-62
2021/06/06 10:39:40;;;;;;;5.90;5.40;;;28.80;45.40;;;;;;5039327;28;20993;-63
2021/06/06 10:42:11;;;;;;;6.17;5.77;;;28.80;45.40;;;;;;5054326;28;21017;-63
2021/06/06 10:44:54;;;;;;;5.47;5.07;;;28.80;45.80;;;;;;5043270;28;20468;-63
2021/06/06 10:47:27;;;;;;;4.90;4.60;;;28.70;44.80;;;;;;5034359;28;20470;-63
2021/06/06 10:49:58;;;;;;;4.60;4.30;;;28.70;45.30;;;;;;5034762;28;20521;-63
2021/06/06 10:52:32;;;;;;;6.73;6.20;;;28.70;45.80;;;;;;5039023;28;20455;-63
2021/06/06 10:55:12;;;;;;;7.07;6.57;;;28.80;47.10;;;;;;5053844;28;20495;-63
2021/06/06 10:57:39;;;;;;;7.10;6.60;;;28.80;47.60;;;;;;5053889;28;20463;-62
2021/06/06 11:00:32;;;;;;;5.70;5.27;;;28.80;46.60;;;;;;5054177;28;20455;-63
2021/06/06 11:03:03;;;;;;;5.73;5.23;;;28.90;45.90;;;;;;5053685;28;20455;-62
2021/06/06 11:05:44;;;;;;;6.07;5.67;;;28.90;46.30;;;;;;5054181;28;20459;-62
2021/06/06 11:08:20;;;;;;;4.67;4.37;;;28.90;46.00;;;;;;5053763;28;20455;-62
2021/06/06 11:10:48;;;;;;;8.40;5.40;;;28.90;45.40;;;;;;5054166;28;20977;-62
2021/06/06 11:13:30;;;;;;;4.70;4.40;;;28.90;44.40;;;;;;5053782;28;20549;-62
2021/06/06 11:15:59;;;;;;;7.43;6.30;;;29.00;44.40;;;;;;5053628;28;20471;-62
2021/06/06 11:18:27;;;;;;;5.50;5.00;;;29.00;44.00;;;;;;5054210;28;20491;-63
2021/06/06 11:20:59;;;;;;;4.73;4.43;;;29.00;43.90;;;;;;5053571;28;20469;-63
2021/06/06 11:23:36;;;;;;;4.40;4.10;;;29.00;43.60;;;;;;5053791;28;20864;-63
2021/06/06 11:26:19;;;;;;;4.70;4.40;;;29.00;44.00;;;;;;5053683;28;20857;-63
2021/06/06 11:28:46;;;;;;;4.57;4.27;;;29.00;43.50;;;;;;5053804;28;20497;-63
2021/06/06 11:31:26;;;;;;;6.07;4.87;;;29.00;43.00;;;;;;5053040;28;20463;-63
2021/06/06 11:34:00;;;;;;;5.07;4.63;;;29.00;43.00;;;;;;5053355;28;20459;-63
2021/06/06 11:36:35;;;;;;;5.17;4.77;;;29.00;42.90;;;;;;5053655;28;20471;-63
2021/06/06 11:39:16;;;;;;;5.33;4.93;;;29.00;43.10;;;;;;5053254;28;20949;-64
2021/06/06 11:41:45;;;;;;;5.07;4.60;;;29.10;43.40;;;;;;5053630;28;20471;-64
2021/06/06 11:44:21;;;;;;;4.47;4.17;;;29.10;42.90;;;;;;5053310;28;20478;-64
2021/06/06 11:46:53;;;;;;;5.20;4.80;;;29.10;42.30;;;;;;5053382;28;20570;-64
2021/06/06 11:49:33;;;;;;;4.27;4.00;;;29.20;42.60;;;;;;5053335;28;21223;-64
2021/06/06 11:52:08;;;;;;;5.00;4.50;;;29.20;42.80;;;;;;5052801;28;20479;-64
2021/06/06 11:54:39;;;;;;;4.90;4.60;;;29.20;43.00;;;;;;5053421;28;20477;-64
2021/06/06 11:57:11;;;;;;;4.70;4.40;;;29.30;43.60;;;;;;5043654;28;20499;-64
2021/06/06 11:59:44;;;;;;;4.53;4.23;;;29.30;42.60;;;;;;5053293;28;20605;-64
2021/06/06 12:02:13;;;;;;;5.30;4.90;;;29.30;43.30;;;;;;5052694;28;20633;-64
2021/06/06 12:04:40;;;;;;;6.50;6.00;;;29.30;43.70;;;;;;5052406;28;20467;-64
2021/06/06 12:07:13;;;;;;;5.50;5.10;;;29.30;43.60;;;;;;5052656;28;20549;-64
2021/06/06 12:09:42;;;;;;;5.77;4.57;;;29.20;42.80;;;;;;5053206;28;20625;-64
2021/06/06 12:12:17;;;;;;;6.20;5.20;;;29.20;42.20;;;;;;5052379;28;20468;-64
2021/06/06 12:14:44;;;;;;;4.90;4.60;;;29.20;41.60;;;;;;5052994;28;20469;-64
2021/06/06 12:17:22;;;;;;;4.87;4.50;;;29.20;41.40;;;;;;5049114;28;20498;-63
2021/06/06 12:19:52;;;;;;;4.47;4.17;;;29.20;41.50;;;;;;5032895;28;20452;-63
2021/06/06 12:22:29;;;;;;;4.63;4.33;;;29.20;41.30;;;;;;5032484;28;20545;-63
2021/06/06 12:25:01;;;;;;;5.20;4.80;;;29.20;41.50;;;;;;5032925;28;20468;-63
2021/06/06 12:27:32;;;;;;;4.83;4.43;;;29.30;40.80;;;;;;5032534;28;20558;-63
2021/06/06 12:30:04;;;;;;;9.67;7.60;;;29.20;41.20;;;;;;5032924;28;20460;-63
2021/06/06 12:32:33;;;;;;;7.43;6.83;;;29.20;41.70;;;;;;5032401;28;21313;-63
2021/06/06 12:35:04;;;;;;;5.37;4.97;;;29.20;42.00;;;;;;5032654;28;20628;-63
2021/06/06 12:37:34;;;;;;;5.53;5.13;;;29.20;42.30;;;;;;5032261;28;21291;-63
2021/06/06 12:40:03;;;;;;;5.10;4.80;;;29.20;42.10;;;;;;5032751;28;20464;-64
2021/06/06 12:42:31;;;;;;;5.00;4.70;;;29.20;42.30;;;;;;5032198;28;20810;-64
2021/06/06 12:45:03;;;;;;;5.00;4.70;;;29.20;41.80;;;;;;5032558;28;21059;-64
2021/06/06 12:47:33;;;;;;;4.47;4.27;;;29.20;41.30;;;;;;5032064;28;20475;-63
2021/06/06 12:50:02;;;;;;;4.63;4.27;;;29.20;40.80;;;;;;5032587;28;20471;-63
2021/06/06 12:52:32;;;;;;;4.80;4.40;;;29.20;41.00;;;;;;5031826;28;20532;-63
2021/06/06 12:55:02;;;;;;;5.13;4.63;;;29.10;41.10;;;;;;5035049;28;20472;-63